Главная страница
METAR-TAF:

METAR-TAF

Аэропорты :

Хитроу

Лондон-Хитроу, Англия

широта: 51-29N, долгота: 000-27W, высота над уровнем моря: 24 м

Текущие метеонаблюдения

Эта сводка был подготовлена 34 минут назад, в 02:20 UTC
Ветер 4 Узел от западно-северо-западный
Температура 19°C
Влажность 83%
Давление 1020 hPa
Видимость 10 км и более
Отдельные облака на высоте 2100 фута
Рассеянная облачность на высоте 2800 фута

METAR: EGLL 210220Z AUTO 30004KT 9999 SCT021 BKN028 19/16 Q1020 NOSIG

Время: 03:54 (02:54 UTC)

Прогноз

Эта сводка был подготовлена 4 часа и 2 минут назад, в 22:52 UTC
Прогноз действительный с 21-го 00 UTC до 22-го 06 UTC
Ветер 5 Узел от западный
Видимость 10 км и более
Отдельные облака на высоте 3500 фута
Вероятность 30%
С 22-го 02 UTC до 22-го 06 UTC
Видимость: 6000 м

TAF: EGLL 202252Z 2100/2206 26005KT 9999 SCT035 PROB30 2202/2206 6000

Метеонаблюдения и прогнозы для более 4000 аэропортов (сводки METAR и TAF).

Имеющиеся станции представлены на карте желтыми и красными точками.

Чтобы увидеть название станции, наведите на нее мышь.

Затем щелкните, чтобы увидеть метеонаблюдения и метеопрогнозы.

Управление картой: чтобы увеличить масштаб, щелкните зеленые кнопки с черным крестиком; чтобы уменьшить масштаб, щелкните зеленую кнопку с тире; для просмотра соседних карт щелкайте зеленые стрелки.


METAR-TAF: